createdAt,value
2022-08-16T00:01:16.018Z,8.35
2022-08-16T00:03:42.978Z,8.55
2022-08-16T00:06:10.045Z,7.60
2022-08-16T00:08:38.174Z,8.13
2022-08-16T00:11:15.812Z,7.45
2022-08-16T00:13:53.322Z,8.05
2022-08-16T00:17:06.637Z,8.63
2022-08-16T00:19:22.909Z,7.97
2022-08-16T00:21:53.164Z,7.82
2022-08-16T00:24:32.166Z,7.45
2022-08-16T00:27:01.092Z,7.00
2022-08-16T00:29:29.888Z,7.50
2022-08-16T00:32:01.446Z,8.45
2022-08-16T00:34:43.195Z,6.95
2022-08-16T00:37:21.061Z,6.70
2022-08-16T00:39:57.138Z,7.82
2022-08-16T00:42:29.732Z,7.20
2022-08-16T00:45:10.221Z,7.22
2022-08-16T00:47:49.292Z,6.70
2022-08-16T00:50:20.680Z,7.80
2022-08-16T00:52:51.307Z,8.27
2022-08-16T00:55:22.304Z,7.55
2022-08-16T00:58:00.156Z,7.18
2022-08-16T01:00:33.418Z,7.47
2022-08-16T01:03:11.732Z,7.22
2022-08-16T01:05:40.452Z,7.75
2022-08-16T01:08:35.142Z,8.23
2022-08-16T01:11:00.086Z,7.70
2022-08-16T01:13:33.066Z,7.57
2022-08-16T01:16:10.278Z,8.00
2022-08-16T01:18:45.669Z,7.78
2022-08-16T01:21:50.677Z,7.78
2022-08-16T01:24:52.687Z,6.63
2022-08-16T01:27:27.704Z,6.97
2022-08-16T01:30:26.509Z,7.35
2022-08-16T01:33:02.832Z,7.45
2022-08-16T01:35:56.654Z,6.85
2022-08-16T01:38:44.957Z,6.93
2022-08-16T01:41:30.459Z,7.38
2022-08-16T01:44:01.014Z,7.38
2022-08-16T01:46:45.203Z,7.72
2022-08-16T01:49:18.643Z,7.40
2022-08-16T01:51:55.064Z,7.40
2022-08-16T01:54:30.702Z,7.25
2022-08-16T01:56:59.590Z,6.88
2022-08-16T01:59:26.548Z,8.10
2022-08-16T02:02:00.227Z,7.43
2022-08-16T02:04:48.816Z,7.05
2022-08-16T02:07:18.419Z,7.18
2022-08-16T02:09:58.648Z,8.80
2022-08-16T02:12:39.881Z,7.85
2022-08-16T02:15:25.372Z,8.02
2022-08-16T02:17:58.300Z,8.60
2022-08-16T02:20:28.087Z,8.07
2022-08-16T02:23:05.591Z,7.28
2022-08-16T02:25:51.884Z,8.20
2022-08-16T02:28:23.696Z,7.97
2022-08-16T02:30:52.290Z,8.10
2022-08-16T02:33:24.449Z,7.80
2022-08-16T02:35:55.151Z,7.70
2022-08-16T02:38:27.400Z,7.57
2022-08-16T02:40:56.526Z,8.95
2022-08-16T02:43:29.762Z,8.90
2022-08-16T02:46:01.266Z,8.38
2022-08-16T02:48:31.123Z,8.95
2022-08-16T02:51:06.155Z,9.15
2022-08-16T02:53:35.485Z,8.43
2022-08-16T02:56:02.472Z,9.38
2022-08-16T02:58:29.401Z,7.50
2022-08-16T03:00:57.711Z,9.13
2022-08-16T03:03:26.713Z,8.60
2022-08-16T03:06:39.634Z,8.80
2022-08-16T03:09:01.892Z,8.15
2022-08-16T03:11:28.720Z,8.90
2022-08-16T03:14:02.628Z,7.75
2022-08-16T03:16:38.470Z,8.77
2022-08-16T03:19:09.840Z,7.93
2022-08-16T03:21:38.707Z,9.02
2022-08-16T03:24:28.793Z,8.75
2022-08-16T03:26:57.967Z,8.75
2022-08-16T03:29:30.400Z,8.70
2022-08-16T03:32:01.968Z,8.68
2022-08-16T03:34:30.538Z,9.18
2022-08-16T03:36:58.234Z,9.15
2022-08-16T03:39:25.159Z,9.80
2022-08-16T03:41:59.897Z,8.93
2022-08-16T03:44:44.592Z,9.02
2022-08-16T03:47:19.042Z,8.00
2022-08-16T03:49:51.395Z,8.20
2022-08-16T03:52:20.592Z,8.20
2022-08-16T03:54:58.181Z,9.65
2022-08-16T03:57:32.145Z,8.35
2022-08-16T04:00:35.350Z,9.68
2022-08-16T04:03:08.843Z,7.88
2022-08-16T04:05:41.053Z,8.57
2022-08-16T04:08:23.071Z,8.25
2022-08-16T04:10:54.249Z,9.63
2022-08-16T04:14:00.468Z,8.90
2022-08-16T04:16:26.397Z,9.43
2022-08-16T04:19:01.383Z,9.48
2022-08-16T04:21:33.505Z,8.70
2022-08-16T04:24:02.789Z,9.20
2022-08-16T04:26:32.187Z,8.70
2022-08-16T04:29:16.877Z,9.05
2022-08-16T04:31:56.373Z,8.95
2022-08-16T04:36:56.631Z,7.82
2022-08-16T04:39:24.464Z,8.55
2022-08-16T04:42:11.258Z,9.15
2022-08-16T04:44:53.791Z,8.80
2022-08-16T04:47:24.928Z,8.05
2022-08-16T04:49:52.785Z,8.90
2022-08-16T04:52:32.650Z,9.05
2022-08-16T04:55:06.019Z,7.80
2022-08-16T04:57:33.131Z,8.43
2022-08-16T05:00:30.868Z,7.97
2022-08-16T05:02:55.834Z,8.07
2022-08-16T05:05:23.555Z,8.90
2022-08-16T05:07:58.228Z,7.90
2022-08-16T05:10:29.450Z,7.78
2022-08-16T05:12:58.264Z,7.70
2022-08-16T05:15:26.201Z,9.95
2022-08-16T05:17:58.507Z,8.80
2022-08-16T05:20:39.066Z,8.05
2022-08-16T05:23:13.667Z,7.65
2022-08-16T05:25:48.458Z,7.18
2022-08-16T05:28:18.545Z,6.50
2022-08-16T05:30:45.984Z,7.00
2022-08-16T05:33:18.085Z,6.60
2022-08-16T05:35:55.218Z,5.78
2022-08-16T05:38:33.115Z,5.45
2022-08-16T05:41:07.050Z,5.90
2022-08-16T05:43:43.320Z,6.20
2022-08-16T05:46:29.747Z,5.53
2022-08-16T05:49:05.424Z,5.70
2022-08-16T05:51:38.160Z,5.55
2022-08-16T05:54:07.893Z,5.25
2022-08-16T05:56:37.524Z,5.45
2022-08-16T05:59:06.102Z,4.85
2022-08-16T06:01:37.836Z,5.10
2022-08-16T06:04:13.518Z,4.63
2022-08-16T06:06:56.751Z,4.18
2022-08-16T06:09:42.972Z,4.53
2022-08-16T06:12:27.392Z,5.22
2022-08-16T06:14:59.203Z,5.00
2022-08-16T06:17:42.660Z,5.65
2022-08-16T06:20:18.426Z,5.25
2022-08-16T06:23:03.034Z,5.10
2022-08-16T06:25:36.643Z,5.45
2022-08-16T06:28:17.075Z,5.18
2022-08-16T06:30:58.595Z,4.60
2022-08-16T06:33:25.414Z,4.53
2022-08-16T06:35:54.940Z,4.97
2022-08-16T06:38:32.303Z,4.88
2022-08-16T06:41:12.375Z,5.15
2022-08-16T06:43:41.646Z,4.50
2022-08-16T06:46:31.975Z,4.82
2022-08-16T06:49:05.261Z,4.60
2022-08-16T06:51:48.365Z,4.38
2022-08-16T06:54:16.744Z,4.47
2022-08-16T06:56:43.710Z,3.67
2022-08-16T06:59:10.875Z,4.22
2022-08-16T07:01:43.135Z,4.28
2022-08-16T07:04:13.316Z,4.60
2022-08-16T07:06:59.665Z,4.15
2022-08-16T07:09:29.760Z,3.75
2022-08-16T07:12:05.338Z,4.38
2022-08-16T07:14:33.378Z,3.80
2022-08-16T07:17:00.833Z,4.30
2022-08-16T07:20:01.459Z,4.50
2022-08-16T07:22:37.907Z,3.65
2022-08-16T07:25:11.769Z,2.88
2022-08-16T07:27:40.011Z,3.35
2022-08-16T07:30:38.456Z,3.38
2022-08-16T07:32:58.658Z,3.92
2022-08-16T07:35:26.086Z,3.95
2022-08-16T07:37:53.342Z,3.63
2022-08-16T07:40:36.998Z,3.35
2022-08-16T07:43:07.457Z,3.13
2022-08-16T07:45:34.502Z,3.30
2022-08-16T07:48:11.443Z,2.92
2022-08-16T07:50:56.186Z,3.17
2022-08-16T07:53:31.174Z,3.10
2022-08-16T07:56:04.395Z,3.08
2022-08-16T07:58:34.993Z,3.03
2022-08-16T08:01:10.979Z,3.30
2022-08-16T08:03:47.613Z,2.65
2022-08-16T08:06:18.262Z,3.28
2022-08-16T08:08:51.045Z,2.95
2022-08-16T08:11:19.868Z,2.83
2022-08-16T08:13:49.418Z,2.50
2022-08-16T08:16:19.604Z,2.60
2022-08-16T08:18:50.556Z,2.80
2022-08-16T08:21:26.183Z,2.67
2022-08-16T08:23:54.767Z,2.80
2022-08-16T08:26:22.114Z,2.60
2022-08-16T08:28:51.569Z,2.70
2022-08-16T08:31:19.059Z,2.90
2022-08-16T08:33:47.567Z,2.90
2022-08-16T08:36:33.040Z,3.60
2022-08-16T08:39:00.587Z,3.17
2022-08-16T08:41:28.872Z,2.97
2022-08-16T08:43:56.976Z,2.30
2022-08-16T08:46:25.461Z,3.40
2022-08-16T08:48:59.166Z,2.88
2022-08-16T08:51:35.529Z,3.50
2022-08-16T08:54:06.757Z,2.58
2022-08-16T08:56:37.169Z,3.47
2022-08-16T08:59:13.594Z,2.78
2022-08-16T09:01:57.189Z,2.72
2022-08-16T09:04:27.026Z,2.50
2022-08-16T09:06:55.266Z,2.13
2022-08-16T09:09:23.424Z,2.55
2022-08-16T09:12:04.206Z,2.75
2022-08-16T09:14:35.426Z,2.37
2022-08-16T09:17:11.905Z,2.40
2022-08-16T09:19:52.640Z,2.60
2022-08-16T09:22:23.886Z,2.47
2022-08-16T09:24:52.464Z,2.60
2022-08-16T09:27:26.466Z,3.25
2022-08-16T09:30:00.487Z,2.92
2022-08-16T09:32:31.287Z,2.65
2022-08-16T09:35:01.359Z,2.75
2022-08-16T09:37:30.500Z,2.80
2022-08-16T09:40:31.839Z,2.40
2022-08-16T09:42:56.124Z,2.20
2022-08-16T09:45:27.892Z,2.25
2022-08-16T09:47:58.174Z,2.20
2022-08-16T09:50:36.945Z,2.25
2022-08-16T09:53:15.580Z,2.70
2022-08-16T09:55:49.326Z,2.83
2022-08-16T09:58:37.859Z,2.30
2022-08-16T10:01:08.455Z,2.53
2022-08-16T10:03:37.950Z,2.40
2022-08-16T10:06:26.197Z,2.78
2022-08-16T10:09:05.584Z,2.30
2022-08-16T10:11:56.099Z,2.70
2022-08-16T10:14:38.631Z,3.05
2022-08-16T10:17:06.167Z,2.17
2022-08-16T10:19:33.647Z,2.30
2022-08-16T10:22:04.955Z,2.25
2022-08-16T10:24:33.384Z,1.90
2022-08-16T10:27:26.179Z,2.85
2022-08-16T10:29:59.544Z,3.33
2022-08-16T10:32:30.510Z,2.10
2022-08-16T10:34:58.073Z,2.30
2022-08-16T10:37:36.061Z,2.67
2022-08-16T10:40:28.616Z,2.08
2022-08-16T10:42:56.076Z,2.00
2022-08-16T10:45:23.053Z,2.17
2022-08-16T10:48:02.845Z,2.42
2022-08-16T10:50:32.517Z,2.08
2022-08-16T10:53:00.507Z,2.60
2022-08-16T10:55:40.848Z,2.53
2022-08-16T10:58:16.926Z,1.88
2022-08-16T11:00:46.309Z,2.17
2022-08-16T11:06:06.678Z,2.10
2022-08-16T11:08:40.794Z,2.07
2022-08-16T11:11:19.111Z,2.30
2022-08-16T11:14:11.476Z,1.92
2022-08-16T11:19:22.919Z,2.63
2022-08-16T11:24:43.277Z,1.95
2022-08-16T11:27:23.337Z,1.95
2022-08-16T11:29:55.703Z,2.13
2022-08-16T11:32:29.820Z,2.08
2022-08-16T11:35:10.588Z,1.88
2022-08-16T11:40:32.869Z,2.28
2022-08-16T11:43:04.128Z,2.22
2022-08-16T11:45:33.653Z,2.35
2022-08-16T11:48:03.797Z,2.25
2022-08-16T11:50:33.404Z,2.45
2022-08-16T11:53:08.287Z,2.60
2022-08-16T11:55:38.083Z,2.30
2022-08-16T11:58:08.328Z,2.38
2022-08-16T12:00:51.285Z,2.20
2022-08-16T12:03:29.678Z,2.45
2022-08-16T12:06:25.448Z,2.80
2022-08-16T12:09:01.066Z,2.42
2022-08-16T12:11:31.585Z,2.28
2022-08-16T12:14:04.209Z,2.22
2022-08-16T12:16:34.321Z,2.65
2022-08-16T12:19:04.892Z,2.05
2022-08-16T12:21:57.814Z,2.08
2022-08-16T12:24:19.974Z,2.60
2022-08-16T12:26:46.793Z,2.13
2022-08-16T12:29:13.724Z,2.28
2022-08-16T12:32:01.555Z,2.10
2022-08-16T12:34:29.432Z,2.13
2022-08-16T12:36:56.505Z,2.20
2022-08-16T12:39:23.714Z,2.38
2022-08-16T12:41:57.637Z,2.03
2022-08-16T12:44:26.539Z,2.25
2022-08-16T12:47:17.343Z,1.90
2022-08-16T12:49:44.191Z,2.28
2022-08-16T12:52:32.633Z,2.20
2022-08-16T12:54:59.645Z,1.95
2022-08-16T12:57:36.158Z,1.98
2022-08-16T13:00:26.403Z,2.10
2022-08-16T13:03:02.835Z,2.10
2022-08-16T13:08:03.253Z,1.90
2022-08-16T13:10:36.855Z,2.35
2022-08-16T13:13:06.547Z,2.20
2022-08-16T13:15:55.770Z,1.73
2022-08-16T13:18:33.504Z,1.70
2022-08-16T13:21:03.004Z,1.85
2022-08-16T13:23:30.697Z,1.70
2022-08-16T13:25:58.064Z,2.55
2022-08-16T13:28:24.973Z,1.77
2022-08-16T13:30:55.397Z,2.00
2022-08-16T13:33:30.553Z,2.33
2022-08-16T13:36:00.725Z,1.83
2022-08-16T13:38:32.672Z,2.22
2022-08-16T13:41:08.956Z,1.58
2022-08-16T13:43:38.123Z,2.17
2022-08-16T13:46:06.567Z,1.77
2022-08-16T13:48:43.072Z,2.08
2022-08-16T13:51:16.605Z,1.77
2022-08-16T13:53:45.876Z,2.13
2022-08-16T13:56:24.932Z,1.80
2022-08-16T13:58:54.804Z,2.08
2022-08-16T14:01:22.378Z,2.08
2022-08-16T14:03:50.209Z,1.95
2022-08-16T14:06:21.821Z,1.85
2022-08-16T14:08:50.227Z,1.90
2022-08-16T14:11:26.468Z,2.05
2022-08-16T14:13:56.141Z,1.98
2022-08-16T14:16:33.962Z,2.10
2022-08-16T14:19:02.181Z,1.75
2022-08-16T14:21:35.242Z,2.17
2022-08-16T14:24:22.171Z,2.03
2022-08-16T14:26:52.646Z,1.80
2022-08-16T14:29:20.394Z,2.38
2022-08-16T14:31:53.474Z,2.30
2022-08-16T14:34:21.549Z,1.63
2022-08-16T14:36:53.229Z,2.22
2022-08-16T14:39:22.046Z,2.17
2022-08-16T14:41:53.775Z,2.13
2022-08-16T14:44:23.668Z,1.95
2022-08-16T14:46:52.969Z,2.10
2022-08-16T14:49:20.158Z,1.80
2022-08-16T14:51:48.660Z,2.20
2022-08-16T14:54:15.709Z,2.28
2022-08-16T14:56:46.888Z,2.17
2022-08-16T14:59:22.656Z,2.20
2022-08-16T15:01:57.592Z,2.00
2022-08-16T15:04:40.551Z,2.05
2022-08-16T15:07:16.643Z,2.13
2022-08-16T15:10:01.064Z,2.40
2022-08-16T15:12:31.077Z,2.47
2022-08-16T15:15:01.736Z,2.20
2022-08-16T15:17:39.432Z,2.50
2022-08-16T15:20:08.666Z,2.13
2022-08-16T15:22:43.534Z,2.53
2022-08-16T15:25:29.734Z,2.15
2022-08-16T15:27:58.499Z,2.25
2022-08-16T15:30:56.868Z,2.25
2022-08-16T15:33:19.567Z,2.22
2022-08-16T15:35:50.506Z,2.10
2022-08-16T15:38:43.524Z,2.70
2022-08-16T15:41:04.654Z,2.85
2022-08-16T15:43:38.872Z,2.40
2022-08-16T15:46:35.521Z,2.30
2022-08-16T15:49:15.570Z,2.03
2022-08-16T15:51:45.465Z,2.00
2022-08-16T15:54:20.901Z,2.05
2022-08-16T15:57:03.016Z,2.20
2022-08-16T15:59:49.208Z,1.98
2022-08-16T16:02:29.695Z,2.00
2022-08-16T16:05:01.910Z,2.20
2022-08-16T16:07:30.841Z,2.35
2022-08-16T16:10:00.255Z,2.30
2022-08-16T16:12:52.896Z,2.53
2022-08-16T16:15:18.759Z,2.47
2022-08-16T16:17:50.915Z,2.10
2022-08-16T16:20:21.563Z,2.40
2022-08-16T16:22:49.281Z,2.30
2022-08-16T16:25:18.097Z,2.22
2022-08-16T16:27:45.613Z,2.30
2022-08-16T16:30:33.513Z,1.92
2022-08-16T16:33:01.440Z,1.85
2022-08-16T16:35:32.664Z,2.60
2022-08-16T16:38:00.155Z,1.80
2022-08-16T16:40:32.598Z,2.38
2022-08-16T16:43:00.886Z,2.05
2022-08-16T16:45:33.345Z,2.28
2022-08-16T16:48:12.796Z,2.28
2022-08-16T16:50:45.224Z,2.10
2022-08-16T16:53:17.688Z,2.00
2022-08-16T16:55:52.227Z,2.03
2022-08-16T16:58:43.435Z,1.98
2022-08-16T17:01:20.973Z,2.28
2022-08-16T17:04:13.209Z,2.20
2022-08-16T17:09:24.689Z,1.60
2022-08-16T17:11:55.481Z,2.10
2022-08-16T17:14:32.668Z,1.95
2022-08-16T17:19:54.271Z,2.95
2022-08-16T17:22:23.006Z,2.00
2022-08-16T17:24:52.681Z,2.70
2022-08-16T17:27:32.161Z,2.17
2022-08-16T17:30:15.606Z,2.10
2022-08-16T17:32:54.473Z,1.73
2022-08-16T17:35:33.705Z,2.33
2022-08-16T17:38:06.090Z,1.83
2022-08-16T17:39:26.422Z,2.65
2022-08-16T17:40:47.213Z,2.30
2022-08-16T17:43:43.886Z,2.00
2022-08-16T17:46:41.572Z,2.50
2022-08-16T17:49:00.850Z,2.10
2022-08-16T17:51:28.485Z,2.03
2022-08-16T17:53:55.802Z,2.42
2022-08-16T17:56:22.684Z,2.00
2022-08-16T17:58:49.528Z,2.10
2022-08-16T18:01:16.775Z,2.58
2022-08-16T18:04:07.283Z,2.70
2022-08-16T18:06:30.764Z,2.08
2022-08-16T18:09:02.674Z,2.33
2022-08-16T18:11:33.738Z,2.35
2022-08-16T18:14:00.610Z,2.30
2022-08-16T18:16:27.614Z,2.72
2022-08-16T18:18:54.414Z,2.13
2022-08-16T18:21:40.554Z,2.38
2022-08-16T18:24:09.033Z,2.40
2022-08-16T18:26:36.342Z,2.42
2022-08-16T18:29:04.025Z,2.42
2022-08-16T18:31:31.298Z,2.17
2022-08-16T18:33:58.185Z,2.35
2022-08-16T18:36:25.684Z,2.72
2022-08-16T18:38:53.606Z,2.50
2022-08-16T18:41:23.023Z,2.28
2022-08-16T18:44:22.885Z,2.33
2022-08-16T18:46:44.168Z,2.22
2022-08-16T18:49:14.927Z,2.50
2022-08-16T18:51:45.457Z,2.45
2022-08-16T18:54:16.279Z,2.92
2022-08-16T18:56:56.930Z,2.92
2022-08-16T18:59:28.116Z,2.42
2022-08-16T19:02:00.175Z,3.10
2022-08-16T19:04:55.532Z,2.70
2022-08-16T19:07:22.914Z,2.35
2022-08-16T19:09:57.517Z,2.55
2022-08-16T19:12:38.400Z,2.95
2022-08-16T19:15:19.381Z,2.97
2022-08-16T19:17:46.479Z,3.17
2022-08-16T19:20:18.187Z,2.90
2022-08-16T19:23:04.593Z,3.00
2022-08-16T19:25:49.193Z,3.00
2022-08-16T19:28:48.274Z,3.30
2022-08-16T19:31:24.525Z,2.75
2022-08-16T19:33:56.801Z,3.35
2022-08-16T19:36:35.462Z,3.35
2022-08-16T19:39:08.618Z,3.20
2022-08-16T19:41:38.487Z,3.28
2022-08-16T19:44:06.857Z,3.15
2022-08-16T19:46:34.445Z,3.08
2022-08-16T19:49:01.346Z,3.28
2022-08-16T19:51:28.231Z,3.78
2022-08-16T19:53:55.076Z,3.38
2022-08-16T19:56:24.561Z,3.25
2022-08-16T19:59:17.574Z,3.42
2022-08-16T20:01:42.366Z,3.30
2022-08-16T20:04:12.281Z,3.55
2022-08-16T20:06:40.560Z,4.00
2022-08-16T20:09:07.833Z,3.42
2022-08-16T20:11:35.514Z,3.55
2022-08-16T20:14:02.796Z,3.33
2022-08-16T20:16:29.863Z,3.58
2022-08-16T20:18:56.747Z,3.35
2022-08-16T20:21:24.205Z,3.33
2022-08-16T20:23:51.098Z,4.03
2022-08-16T20:26:18.710Z,3.70
2022-08-16T20:28:53.564Z,3.50
2022-08-16T20:31:22.807Z,3.70
2022-08-16T20:33:50.896Z,3.55
2022-08-16T20:36:17.716Z,3.50
2022-08-16T20:38:47.213Z,3.22
2022-08-16T20:41:16.067Z,3.72
2022-08-16T20:43:43.433Z,3.90
2022-08-16T20:46:10.643Z,3.65
2022-08-16T20:48:37.440Z,3.65
2022-08-16T20:51:06.678Z,3.50
2022-08-16T20:53:33.913Z,4.43
2022-08-16T20:56:00.681Z,3.78
2022-08-16T20:58:27.522Z,3.60
2022-08-16T21:00:54.411Z,3.70
2022-08-16T21:03:21.250Z,3.65
2022-08-16T21:05:48.029Z,3.53
2022-08-16T21:08:50.569Z,4.00
2022-08-16T21:11:05.433Z,3.65
2022-08-16T21:13:33.865Z,3.90
2022-08-16T21:16:02.498Z,3.65
2022-08-16T21:18:29.669Z,4.25
2022-08-16T21:20:56.597Z,4.07
2022-08-16T21:23:23.445Z,4.05
2022-08-16T21:25:59.122Z,4.10
2022-08-16T21:28:40.138Z,4.00
2022-08-16T21:31:15.301Z,4.03
2022-08-16T21:33:43.684Z,4.10
2022-08-16T21:36:11.769Z,4.53
2022-08-16T21:38:39.963Z,3.67
2022-08-16T21:41:08.744Z,4.28
2022-08-16T21:43:35.809Z,4.18
2022-08-16T21:46:04.561Z,4.45
2022-08-16T21:48:34.010Z,4.28
2022-08-16T21:51:11.341Z,4.57
2022-08-16T21:53:38.401Z,4.20
2022-08-16T21:56:06.901Z,4.13
2022-08-16T21:58:36.650Z,4.18
2022-08-16T22:01:04.249Z,4.00
2022-08-16T22:03:32.753Z,3.58
2022-08-16T22:06:12.964Z,4.10
2022-08-16T22:08:49.411Z,4.15
2022-08-16T22:11:23.801Z,4.50
2022-08-16T22:13:57.840Z,4.53
2022-08-16T22:16:33.638Z,4.45
2022-08-16T22:19:01.765Z,4.43
2022-08-16T22:21:29.896Z,4.22
2022-08-16T22:23:58.663Z,4.10
2022-08-16T22:26:33.833Z,3.78
2022-08-16T22:29:05.107Z,4.05
2022-08-16T22:31:32.960Z,4.05
2022-08-16T22:34:01.717Z,4.63
2022-08-16T22:36:30.482Z,4.88
2022-08-16T22:38:59.892Z,4.32
2022-08-16T22:41:32.171Z,4.10
2022-08-16T22:44:00.810Z,4.47
2022-08-16T22:46:27.700Z,4.25
2022-08-16T22:48:54.930Z,4.07
2022-08-16T22:51:24.813Z,3.78
2022-08-16T22:53:52.779Z,4.78
2022-08-16T22:56:20.093Z,4.03
2022-08-16T22:58:47.501Z,3.90
2022-08-16T23:01:16.810Z,4.65
2022-08-16T23:03:44.247Z,4.07
2022-08-16T23:06:13.674Z,4.22
2022-08-16T23:08:41.725Z,4.10
2022-08-16T23:11:12.727Z,4.80
2022-08-16T23:13:53.012Z,4.40
2022-08-16T23:16:33.459Z,4.07
2022-08-16T23:19:04.902Z,4.25
2022-08-16T23:21:32.783Z,4.05
2022-08-16T23:23:59.980Z,4.32
2022-08-16T23:26:46.564Z,4.75
2022-08-16T23:29:15.958Z,4.40
2022-08-16T23:31:54.412Z,4.18
2022-08-16T23:34:22.045Z,3.92
2022-08-16T23:36:48.861Z,4.40
2022-08-16T23:39:15.688Z,3.75
2022-08-16T23:41:43.775Z,4.28
2022-08-16T23:44:57.718Z,4.43
2022-08-16T23:46:57.377Z,4.18
2022-08-16T23:49:59.064Z,3.95
2022-08-16T23:52:11.361Z,4.57
2022-08-16T23:54:38.365Z,4.43
2022-08-16T23:57:05.364Z,4.40
2022-08-16T23:59:35.898Z,4.03
